McCormick, SC

10:07 AM EDT on March 29, 2015 (GMT -0400)
Chamberlains Ferry Rd | | Change Station
CLOSE
Current Station
Personal Weather Station
Location: McCormick, SC
Elevation: 463 ft
Nearby Weather Stations

Elev 463 ft 33.88 °N, 82.34 °W | Updated 10 minutes ago

Clear
Clear
44.2 °F
Feels Like 44 °F
N
2.7
Wind Variable Wind from ESE

Today
High -- | Low -- °F
--% Chance of Precip.
Yesterday
High -- | Low -- °F
Precip. -- in
7:20 AM 7:47 PM
Waxing Gibbous, 71% visible
Pressure 30.46 in
Visibility 10.0 miles
Clouds Clear
Windchill 44 °F
Dew Point 21 °F
Humidity 39%
Rainfall 0.00 in
Snow Depth Not available.
UV 3 out of 12
Pollen 8.60 out of 12
Air Quality Not available.
Flu Activity Not available.
METAR KGRD 291356Z AUTO 09006KT 10SM CLR 04/M09 A3045 RMK AO2 SLP314 T00391094

More Conditions Fewer Conditions

Pressure 30.46 in
Visibility 10.0 miles
Clouds Clear
Windchill 44 °F
Dew Point 21 °F
Humidity 39%
Rainfall 0.00 in
Snow Depth Not available.
UV 3 out of 12
Pollen 8.60 out of 12
Air Quality Not available.
Flu Activity Not available.
METAR KGRD 291356Z AUTO 09006KT 10SM CLR 04/M09 A3045 RMK AO2 SLP314 T00391094

More Conditions Fewer Conditions

10-Day Weather Forecast

Almanac

Astronomy

Mar. 29, 2015 Rise Set
Actual Time
Civil Twilight
Nautical Twilight
Astronomical Twilight
Moon
Length of Visible Light
Length of Day
Tomorrow will be .
, % of the Moon is Illuminated

Today's Extremes

State Highs State Lows

Community

WunderPhotos

Upload Photos

1,809,239 photos uploaded!

WunderBlogs® & News

Nearby

Air Quality

  Air Quality AQ Index Pollutant
Not available.

Snow Depth

Station Depth Elevation

Earthquake Activity

City Distance Mag. Time & Date
Minimum magnitude displayed is 2.5.

Coastal Water Temperatures

Place Temperature

Stations

Nearby Weather Stations

Station Location Temp. Windchill Dew Point Humidity Wind Precip. Elev Updated Type